sensor_id;sensor_type;location;lat;lon;timestamp;pressure;altitude;pressure_sealevel;temperature;humidity
42725;BME280;28369;44.046;23.014;2023-03-24T00:01:53;101279.38;;;16.53;52.94
42725;BME280;28369;44.046;23.014;2023-03-24T00:04:19;101158.75;;;15.57;53.81
42725;BME280;28369;44.046;23.014;2023-03-24T00:06:46;100971.81;;;14.25;54.75
42725;BME280;28369;44.046;23.014;2023-03-24T00:09:14;100994.19;;;14.41;55.36
42725;BME280;28369;44.046;23.014;2023-03-24T00:11:40;100838.06;;;13.57;55.25
42725;BME280;28369;44.046;23.014;2023-03-24T00:14:05;101124.06;;;15.50;54.76
42725;BME280;28369;44.046;23.014;2023-03-24T00:16:31;101266.44;;;16.50;54.05
42725;BME280;28369;44.046;23.014;2023-03-24T00:19:00;100902.91;;;14.55;52.58
42725;BME280;28369;44.046;23.014;2023-03-24T00:21:25;101274.66;;;16.83;52.28
42725;BME280;28369;44.046;23.014;2023-03-24T00:23:53;101136.75;;;16.11;51.72
42725;BME280;28369;44.046;23.014;2023-03-24T00:26:20;101269.84;;;17.04;51.57
42725;BME280;28369;44.046;23.014;2023-03-24T00:28:47;101181.91;;;16.63;50.28
42725;BME280;28369;44.046;23.014;2023-03-24T00:31:14;100850.28;;;14.79;50.11
42725;BME280;28369;44.046;23.014;2023-03-24T00:33:41;101001.25;;;15.60;50.07
42725;BME280;28369;44.046;23.014;2023-03-24T00:36:09;101135.59;;;16.57;49.53
42725;BME280;28369;44.046;23.014;2023-03-24T00:38:39;101267.81;;;17.24;50.06
42725;BME280;28369;44.046;23.014;2023-03-24T00:41:06;101221.38;;;17.02;49.71
42725;BME280;28369;44.046;23.014;2023-03-24T00:43:33;100919.84;;;15.44;49.59
42725;BME280;28369;44.046;23.014;2023-03-24T00:46:06;101128.81;;;16.63;49.26
42725;BME280;28369;44.046;23.014;2023-03-24T00:48:32;101010.03;;;15.96;49.13
42725;BME280;28369;44.046;23.014;2023-03-24T00:51:00;101242.56;;;17.55;49.14
42725;BME280;28369;44.046;23.014;2023-03-24T00:53:27;100907.25;;;15.46;48.87
42725;BME280;28369;44.046;23.014;2023-03-24T00:55:53;101229.28;;;17.55;48.55
42725;BME280;28369;44.046;23.014;2023-03-24T00:58:19;101147.88;;;17.11;47.77
42725;BME280;28369;44.046;23.014;2023-03-24T01:00:51;101228.25;;;17.56;47.29
42725;BME280;28369;44.046;23.014;2023-03-24T01:03:17;101007.94;;;16.08;46.99
42725;BME280;28369;44.046;23.014;2023-03-24T01:05:46;100941.53;;;15.47;47.14
42725;BME280;28369;44.046;23.014;2023-03-24T01:08:13;101238.69;;;17.15;47.51
42725;BME280;28369;44.046;23.014;2023-03-24T01:10:39;100882.69;;;15.17;47.26
42725;BME280;28369;44.046;23.014;2023-03-24T01:13:29;101158.22;;;16.88;47.08
42725;BME280;28369;44.046;23.014;2023-03-24T01:15:55;101134.78;;;16.57;47.50
42725;BME280;28369;44.046;23.014;2023-03-24T01:18:21;100872.41;;;15.14;47.49
42725;BME280;28369;44.046;23.014;2023-03-24T01:20:52;101221.50;;;17.27;47.16
42725;BME280;28369;44.046;23.014;2023-03-24T01:23:21;101101.31;;;16.38;47.61
42725;BME280;28369;44.046;23.014;2023-03-24T01:25:48;100881.03;;;15.16;47.71
42725;BME280;28369;44.046;23.014;2023-03-24T01:28:16;100913.16;;;15.40;47.81
42725;BME280;28369;44.046;23.014;2023-03-24T01:30:43;100888.16;;;14.98;47.78
42725;BME280;28369;44.046;23.014;2023-03-24T01:33:09;101052.06;;;16.35;48.08
42725;BME280;28369;44.046;23.014;2023-03-24T01:35:35;100788.34;;;14.72;47.92
42725;BME280;28369;44.046;23.014;2023-03-24T01:38:06;100759.75;;;14.58;47.97
42725;BME280;28369;44.046;23.014;2023-03-24T01:40:33;100907.66;;;15.33;48.30
42725;BME280;28369;44.046;23.014;2023-03-24T01:43:00;101028.44;;;16.24;47.92
42725;BME280;28369;44.046;23.014;2023-03-24T01:48:24;100948.41;;;15.58;47.80
42725;BME280;28369;44.046;23.014;2023-03-24T01:51:15;100788.09;;;14.47;48.19
42725;BME280;28369;44.046;23.014;2023-03-24T01:53:50;101201.50;;;17.15;47.73
42725;BME280;28369;44.046;23.014;2023-03-24T01:56:17;100840.91;;;14.85;47.52
42725;BME280;28369;44.046;23.014;2023-03-24T01:58:47;101204.31;;;16.87;47.60
42725;BME280;28369;44.046;23.014;2023-03-24T02:01:14;100841.94;;;14.56;47.61
42725;BME280;28369;44.046;23.014;2023-03-24T02:03:42;101068.75;;;15.83;48.47
42725;BME280;28369;44.046;23.014;2023-03-24T02:06:08;100945.19;;;14.92;48.33
42725;BME280;28369;44.046;23.014;2023-03-24T02:08:52;100831.84;;;14.42;48.50
42725;BME280;28369;44.046;23.014;2023-03-24T02:11:20;101077.59;;;15.74;48.63
42725;BME280;28369;44.046;23.014;2023-03-24T02:13:45;100906.53;;;14.54;48.77
42725;BME280;28369;44.046;23.014;2023-03-24T02:27:28;101239.06;;;14.73;50.50
42725;BME280;28369;44.046;23.014;2023-03-24T02:38:08;100677.38;;;11.39;49.78
42725;BME280;28369;44.046;23.014;2023-03-24T02:40:48;100909.78;;;12.84;49.47
42725;BME280;28369;44.046;23.014;2023-03-24T02:54:17;101192.28;;;13.13;52.88
42725;BME280;28369;44.046;23.014;2023-03-24T03:02:44;101154.34;;;13.45;53.23
42725;BME280;28369;44.046;23.014;2023-03-24T03:05:19;100977.00;;;12.80;53.02
42725;BME280;28369;44.046;23.014;2023-03-24T03:07:47;101255.78;;;14.63;52.80
42725;BME280;28369;44.046;23.014;2023-03-24T03:10:19;101078.47;;;13.96;51.85
42725;BME280;28369;44.046;23.014;2023-03-24T03:12:51;101088.44;;;14.32;51.04
42725;BME280;28369;44.046;23.014;2023-03-24T03:15:21;101231.50;;;15.35;50.73
42725;BME280;28369;44.046;23.014;2023-03-24T03:17:52;100907.03;;;13.15;50.92
42725;BME280;28369;44.046;23.014;2023-03-24T03:20:21;100829.38;;;12.78;50.72
42725;BME280;28369;44.046;23.014;2023-03-24T03:22:57;100921.25;;;13.53;50.13
42725;BME280;28369;44.046;23.014;2023-03-24T03:25:28;100833.41;;;12.83;50.02
42725;BME280;28369;44.046;23.014;2023-03-24T03:27:59;100922.50;;;13.39;50.33
42725;BME280;28369;44.046;23.014;2023-03-24T03:30:53;100757.47;;;12.37;50.30
42725;BME280;28369;44.046;23.014;2023-03-24T03:33:24;101233.34;;;15.62;49.72
42725;BME280;28369;44.046;23.014;2023-03-24T03:35:58;100626.59;;;11.87;49.87
42725;BME280;28369;44.046;23.014;2023-03-24T03:39:45;101237.38;;;15.29;51.44
42725;BME280;28369;44.046;23.014;2023-03-24T03:41:51;101093.72;;;14.32;50.94
42725;BME280;28369;44.046;23.014;2023-03-24T03:44:17;101113.34;;;14.49;50.63
42725;BME280;28369;44.046;23.014;2023-03-24T03:46:43;101189.88;;;14.80;50.93
42725;BME280;28369;44.046;23.014;2023-03-24T03:49:08;100878.94;;;12.55;51.56
42725;BME280;28369;44.046;23.014;2023-03-24T03:51:35;100918.81;;;12.82;51.46
42725;BME280;28369;44.046;23.014;2023-03-24T03:54:05;100934.59;;;12.52;51.77
42725;BME280;28369;44.046;23.014;2023-03-24T03:56:34;101252.13;;;14.84;51.80
42725;BME280;28369;44.046;23.014;2023-03-24T03:59:01;101256.03;;;14.80;52.54
42725;BME280;28369;44.046;23.014;2023-03-24T04:01:29;101074.81;;;14.17;51.37
42725;BME280;28369;44.046;23.014;2023-03-24T04:06:42;101176.28;;;15.02;50.40
42725;BME280;28369;44.046;23.014;2023-03-24T04:20:29;101237.44;;;15.47;50.11
42725;BME280;28369;44.046;23.014;2023-03-24T04:23:10;101093.38;;;14.64;50.16
42725;BME280;28369;44.046;23.014;2023-03-24T04:26:13;101257.97;;;15.72;50.23
42725;BME280;28369;44.046;23.014;2023-03-24T04:28:52;101252.66;;;16.00;49.65
42725;BME280;28369;44.046;23.014;2023-03-24T04:31:30;101251.69;;;15.83;49.82
42725;BME280;28369;44.046;23.014;2023-03-24T04:34:02;101154.44;;;15.28;49.87
42725;BME280;28369;44.046;23.014;2023-03-24T04:36:35;101245.81;;;16.08;49.81
42725;BME280;28369;44.046;23.014;2023-03-24T04:39:11;100914.19;;;13.91;50.08
42725;BME280;28369;44.046;23.014;2023-03-24T04:41:38;101164.63;;;15.79;49.91
42725;BME280;28369;44.046;23.014;2023-03-24T04:44:05;101121.00;;;15.91;49.63
42725;BME280;28369;44.046;23.014;2023-03-24T04:46:31;101179.13;;;16.20;50.26
42725;BME280;28369;44.046;23.014;2023-03-24T04:48:57;101185.41;;;16.01;50.10
42725;BME280;28369;44.046;23.014;2023-03-24T04:51:23;100957.66;;;14.44;49.84
42725;BME280;28369;44.046;23.014;2023-03-24T04:53:49;101091.53;;;15.30;50.43
42725;BME280;28369;44.046;23.014;2023-03-24T04:58:57;101109.38;;;16.28;48.58
42725;BME280;28369;44.046;23.014;2023-03-24T05:01:25;101107.97;;;16.68;47.38
42725;BME280;28369;44.046;23.014;2023-03-24T05:03:53;101146.81;;;16.69;47.27
42725;BME280;28369;44.046;23.014;2023-03-24T05:06:19;101197.69;;;17.09;47.16
42725;BME280;28369;44.046;23.014;2023-03-24T05:08:45;101204.72;;;16.92;46.53
42725;BME280;28369;44.046;23.014;2023-03-24T05:11:11;101276.53;;;17.35;46.36
42725;BME280;28369;44.046;23.014;2023-03-24T05:13:37;101189.59;;;16.66;46.69
42725;BME280;28369;44.046;23.014;2023-03-24T05:16:03;101266.16;;;17.23;46.39
42725;BME280;28369;44.046;23.014;2023-03-24T05:18:28;101168.84;;;16.88;46.05
42725;BME280;28369;44.046;23.014;2023-03-24T05:20:54;101277.59;;;17.50;46.08
42725;BME280;28369;44.046;23.014;2023-03-24T05:23:19;101061.41;;;16.21;45.85
42725;BME280;28369;44.046;23.014;2023-03-24T05:25:46;100800.19;;;14.50;46.12
42725;BME280;28369;44.046;23.014;2023-03-24T05:28:12;101228.06;;;17.15;46.17
42725;BME280;28369;44.046;23.014;2023-03-24T05:30:37;101282.03;;;17.41;46.41
42725;BME280;28369;44.046;23.014;2023-03-24T05:33:03;101276.81;;;17.58;46.23
42725;BME280;28369;44.046;23.014;2023-03-24T05:35:28;101228.16;;;17.31;46.54
42725;BME280;28369;44.046;23.014;2023-03-24T05:37:54;101281.16;;;17.67;46.59
42725;BME280;28369;44.046;23.014;2023-03-24T05:40:20;101309.13;;;17.79;46.46
42725;BME280;28369;44.046;23.014;2023-03-24T05:42:48;101080.00;;;16.48;46.42
42725;BME280;28369;44.046;23.014;2023-03-24T05:45:14;101181.84;;;16.99;46.62
42725;BME280;28369;44.046;23.014;2023-03-24T05:47:40;100992.50;;;15.59;47.37
42725;BME280;28369;44.046;23.014;2023-03-24T05:50:05;100996.53;;;15.71;47.54
42725;BME280;28369;44.046;23.014;2023-03-24T05:52:32;101283.03;;;17.83;46.70
42725;BME280;28369;44.046;23.014;2023-03-24T05:54:57;101336.81;;;17.95;46.77
42725;BME280;28369;44.046;23.014;2023-03-24T05:57:23;101189.78;;;16.91;47.47
42725;BME280;28369;44.046;23.014;2023-03-24T05:59:48;101107.09;;;16.59;47.54
42725;BME280;28369;44.046;23.014;2023-03-24T06:02:14;101037.13;;;16.69;46.65
42725;BME280;28369;44.046;23.014;2023-03-24T06:04:40;101118.69;;;17.27;46.66
42725;BME280;28369;44.046;23.014;2023-03-24T06:07:10;100979.09;;;16.05;46.96
42725;BME280;28369;44.046;23.014;2023-03-24T06:09:36;101302.16;;;18.46;47.15
42725;BME280;28369;44.046;23.014;2023-03-24T06:12:02;101008.53;;;16.97;46.63
42725;BME280;28369;44.046;23.014;2023-03-24T06:14:28;100434.16;;;13.10;46.74
42725;BME280;28369;44.046;23.014;2023-03-24T06:16:54;101092.75;;;17.05;47.34
42725;BME280;28369;44.046;23.014;2023-03-24T06:19:26;101225.72;;;17.46;48.67
42725;BME280;28369;44.046;23.014;2023-03-24T06:21:55;100597.50;;;13.87;48.19
42725;BME280;28369;44.046;23.014;2023-03-24T06:24:27;100855.41;;;15.96;47.72
42725;BME280;28369;44.046;23.014;2023-03-24T06:26:53;100951.16;;;16.62;47.21
42725;BME280;28369;44.046;23.014;2023-03-24T06:29:28;101151.63;;;18.19;47.12
42725;BME280;28369;44.046;23.014;2023-03-24T06:31:55;101305.03;;;19.19;47.20
42725;BME280;28369;44.046;23.014;2023-03-24T06:34:21;101288.72;;;19.05;47.22
42725;BME280;28369;44.046;23.014;2023-03-24T06:36:49;101187.53;;;18.80;46.09
42725;BME280;28369;44.046;23.014;2023-03-24T06:39:15;101321.00;;;19.75;46.23
42725;BME280;28369;44.046;23.014;2023-03-24T06:41:40;101317.72;;;19.81;46.08
42725;BME280;28369;44.046;23.014;2023-03-24T06:44:06;100937.22;;;17.43;45.59
42725;BME280;28369;44.046;23.014;2023-03-24T06:46:31;101199.34;;;18.61;46.58
42725;BME280;28369;44.046;23.014;2023-03-24T06:48:57;100951.25;;;16.86;47.37
42725;BME280;28369;44.046;23.014;2023-03-24T06:51:22;101317.69;;;18.75;48.09
42725;BME280;28369;44.046;23.014;2023-03-24T06:53:48;100942.69;;;17.34;46.83
42725;BME280;28369;44.046;23.014;2023-03-24T06:56:14;101203.44;;;19.13;46.16
42725;BME280;28369;44.046;23.014;2023-03-24T06:58:42;101316.63;;;20.30;46.11
42725;BME280;28369;44.046;23.014;2023-03-24T07:01:08;100991.59;;;18.38;46.48
42725;BME280;28369;44.046;23.014;2023-03-24T07:03:34;101064.72;;;19.38;44.86
42725;BME280;28369;44.046;23.014;2023-03-24T07:06:00;101190.44;;;20.13;44.33
42725;BME280;28369;44.046;23.014;2023-03-24T07:08:38;101185.44;;;20.33;44.05
42725;BME280;28369;44.046;23.014;2023-03-24T07:11:05;101314.19;;;20.89;44.85
42725;BME280;28369;44.046;23.014;2023-03-24T07:13:33;101185.09;;;20.13;44.86
42725;BME280;28369;44.046;23.014;2023-03-24T07:16:05;101226.00;;;20.51;44.20
42725;BME280;28369;44.046;23.014;2023-03-24T07:18:44;101262.94;;;20.71;44.97
42725;BME280;28369;44.046;23.014;2023-03-24T07:21:10;100837.22;;;18.38;44.01
42725;BME280;28369;44.046;23.014;2023-03-24T07:23:36;100955.19;;;19.25;44.25
42725;BME280;28369;44.046;23.014;2023-03-24T07:26:04;101314.88;;;21.21;43.95
42725;BME280;28369;44.046;23.014;2023-03-24T07:28:32;101088.13;;;19.28;45.07
42725;BME280;28369;44.046;23.014;2023-03-24T07:31:02;101007.81;;;18.60;45.10
42725;BME280;28369;44.046;23.014;2023-03-24T07:33:28;101316.28;;;20.79;44.47
42725;BME280;28369;44.046;23.014;2023-03-24T07:39:15;101311.41;;;20.83;46.12
42725;BME280;28369;44.046;23.014;2023-03-24T07:45:05;101274.19;;;20.96;44.53
42725;BME280;28369;44.046;23.014;2023-03-24T07:50:55;101325.63;;;20.98;44.98
42725;BME280;28369;44.046;23.014;2023-03-24T07:56:46;101280.69;;;21.32;44.36
42725;BME280;28369;44.046;23.014;2023-03-24T08:02:37;101268.53;;;21.59;43.74
42725;BME280;28369;44.046;23.014;2023-03-24T08:55:27;101033.53;;;22.83;38.73
42725;BME280;28369;44.046;23.014;2023-03-24T09:07:24;101237.81;;;25.17;37.43
42725;BME280;28369;44.046;23.014;2023-03-24T09:12:45;100913.63;;;23.32;37.00
42725;BME280;28369;44.046;23.014;2023-03-24T09:15:12;101194.28;;;25.40;36.54
42725;BME280;28369;44.046;23.014;2023-03-24T09:17:39;101230.28;;;25.84;36.44
42725;BME280;28369;44.046;23.014;2023-03-24T09:20:07;101220.16;;;25.80;35.79
42725;BME280;28369;44.046;23.014;2023-03-24T09:22:41;101229.00;;;26.26;36.15
42725;BME280;28369;44.046;23.014;2023-03-24T09:25:10;101153.19;;;25.90;35.70
42725;BME280;28369;44.046;23.014;2023-03-24T09:27:36;101198.38;;;26.20;35.22
42725;BME280;28369;44.046;23.014;2023-03-24T09:30:03;101223.19;;;26.54;35.47
42725;BME280;28369;44.046;23.014;2023-03-24T09:32:29;101222.75;;;26.57;35.38
42725;BME280;28369;44.046;23.014;2023-03-24T09:34:54;101219.34;;;26.68;34.83
42725;BME280;28369;44.046;23.014;2023-03-24T09:37:20;101217.03;;;26.72;34.62
42725;BME280;28369;44.046;23.014;2023-03-24T09:39:46;101218.16;;;26.83;34.51
42725;BME280;28369;44.046;23.014;2023-03-24T09:42:22;101212.50;;;27.10;34.25
42725;BME280;28369;44.046;23.014;2023-03-24T09:44:58;101206.56;;;27.01;34.49
42725;BME280;28369;44.046;23.014;2023-03-24T09:47:39;101188.97;;;26.80;34.87
42725;BME280;28369;44.046;23.014;2023-03-24T09:50:20;101165.50;;;26.80;34.76
42725;BME280;28369;44.046;23.014;2023-03-24T09:52:50;101007.06;;;26.01;35.03
42725;BME280;28369;44.046;23.014;2023-03-24T09:55:24;101124.19;;;26.61;35.90
42725;BME280;28369;44.046;23.014;2023-03-24T09:57:51;101159.06;;;27.00;35.74
42725;BME280;28369;44.046;23.014;2023-03-24T10:00:20;101194.41;;;27.10;34.33
42725;BME280;28369;44.046;23.014;2023-03-24T10:02:47;101156.91;;;26.65;36.54
42725;BME280;28369;44.046;23.014;2023-03-24T10:05:40;101173.59;;;26.99;35.43
42725;BME280;28369;44.046;23.014;2023-03-24T10:10:52;101204.94;;;27.37;33.80
42725;BME280;28369;44.046;23.014;2023-03-24T10:13:31;101207.19;;;27.82;32.97
42725;BME280;28369;44.046;23.014;2023-03-24T10:16:09;101199.72;;;27.96;33.64
42725;BME280;28369;44.046;23.014;2023-03-24T10:18:51;101190.38;;;27.99;34.00
42725;BME280;28369;44.046;23.014;2023-03-24T10:21:22;101156.69;;;28.13;32.37
42725;BME280;28369;44.046;23.014;2023-03-24T10:23:58;101128.59;;;28.02;33.45
42725;BME280;28369;44.046;23.014;2023-03-24T10:26:50;101173.72;;;28.49;32.40
42725;BME280;28369;44.046;23.014;2023-03-24T10:29:35;101040.06;;;27.50;32.84
42725;BME280;28369;44.046;23.014;2023-03-24T10:32:08;101146.09;;;27.69;33.09
42725;BME280;28369;44.046;23.014;2023-03-24T10:34:37;101028.13;;;27.28;32.30
42725;BME280;28369;44.046;23.014;2023-03-24T10:37:04;101178.66;;;28.17;31.88
42725;BME280;28369;44.046;23.014;2023-03-24T10:39:31;101169.47;;;28.18;31.96
42725;BME280;28369;44.046;23.014;2023-03-24T10:41:58;101100.81;;;27.95;31.62
42725;BME280;28369;44.046;23.014;2023-03-24T10:44:24;101131.69;;;27.64;31.95
42725;BME280;28369;44.046;23.014;2023-03-24T10:46:53;101091.91;;;27.83;32.34
42725;BME280;28369;44.046;23.014;2023-03-24T10:49:20;101139.06;;;28.22;32.37
42725;BME280;28369;44.046;23.014;2023-03-24T10:52:00;101116.38;;;28.00;30.61
42725;BME280;28369;44.046;23.014;2023-03-24T10:54:28;101153.41;;;28.70;29.22
42725;BME280;28369;44.046;23.014;2023-03-24T10:59:30;101140.47;;;28.49;30.16
42725;BME280;28369;44.046;23.014;2023-03-24T11:04:40;101139.53;;;28.43;29.82
42725;BME280;28369;44.046;23.014;2023-03-24T11:09:39;101074.88;;;28.41;28.11
42725;BME280;28369;44.046;23.014;2023-03-24T11:12:19;101121.41;;;28.55;28.96
42725;BME280;28369;44.046;23.014;2023-03-24T11:14:46;101092.31;;;28.86;28.62
42725;BME280;28369;44.046;23.014;2023-03-24T11:17:13;101025.84;;;28.61;27.22
42725;BME280;28369;44.046;23.014;2023-03-24T11:19:50;101077.16;;;28.85;27.15
42725;BME280;28369;44.046;23.014;2023-03-24T11:22:17;101059.25;;;29.25;28.85
42725;BME280;28369;44.046;23.014;2023-03-24T11:24:42;101036.28;;;28.70;27.08
42725;BME280;28369;44.046;23.014;2023-03-24T11:27:12;101089.84;;;29.25;25.77
42725;BME280;28369;44.046;23.014;2023-03-24T11:29:40;101085.22;;;28.97;25.91
42725;BME280;28369;44.046;23.014;2023-03-24T11:32:18;101048.66;;;28.94;26.30
42725;BME280;28369;44.046;23.014;2023-03-24T11:34:47;101021.09;;;28.69;27.01
42725;BME280;28369;44.046;23.014;2023-03-24T11:37:19;101020.47;;;29.07;27.28
42725;BME280;28369;44.046;23.014;2023-03-24T11:42:31;101045.44;;;29.26;26.41
42725;BME280;28369;44.046;23.014;2023-03-24T11:44:57;101004.22;;;29.07;25.79
42725;BME280;28369;44.046;23.014;2023-03-24T11:47:35;101023.16;;;29.36;26.94
42725;BME280;28369;44.046;23.014;2023-03-24T11:50:13;100881.78;;;28.37;24.92
42725;BME280;28369;44.046;23.014;2023-03-24T11:55:31;100952.00;;;29.41;25.03
42725;BME280;28369;44.046;23.014;2023-03-24T12:09:13;100864.03;;;29.60;23.40
42725;BME280;28369;44.046;23.014;2023-03-24T12:14:48;100938.00;;;30.00;22.10
42725;BME280;28369;44.046;23.014;2023-03-24T12:17:14;101028.19;;;31.06;22.56
42725;BME280;28369;44.046;23.014;2023-03-24T12:22:39;101035.16;;;31.29;22.75
42725;BME280;28369;44.046;23.014;2023-03-24T12:30:30;100996.81;;;30.93;23.23
42725;BME280;28369;44.046;23.014;2023-03-24T12:44:22;100934.88;;;30.58;21.96
42725;BME280;28369;44.046;23.014;2023-03-24T12:47:16;100973.16;;;30.89;20.78
42725;BME280;28369;44.046;23.014;2023-03-24T12:55:24;100795.44;;;29.77;22.44
42725;BME280;28369;44.046;23.014;2023-03-24T13:03:40;100921.19;;;30.75;21.05
42725;BME280;28369;44.046;23.014;2023-03-24T13:06:23;100960.31;;;30.79;21.65
42725;BME280;28369;44.046;23.014;2023-03-24T13:11:35;100773.94;;;29.26;21.45
42725;BME280;28369;44.046;23.014;2023-03-24T13:14:08;100816.81;;;29.95;21.20
42725;BME280;28369;44.046;23.014;2023-03-24T13:16:36;100747.94;;;29.25;21.38
42725;BME280;28369;44.046;23.014;2023-03-24T13:19:03;100915.97;;;30.19;22.69
42725;BME280;28369;44.046;23.014;2023-03-24T13:21:38;100852.19;;;30.11;22.53
42725;BME280;28369;44.046;23.014;2023-03-24T13:24:11;100688.13;;;29.04;22.70
42725;BME280;28369;44.046;23.014;2023-03-24T13:26:43;100925.56;;;30.76;22.45
42725;BME280;28369;44.046;23.014;2023-03-24T13:32:06;100896.41;;;30.39;22.73
42725;BME280;28369;44.046;23.014;2023-03-24T13:34:38;100849.03;;;30.19;22.87
42725;BME280;28369;44.046;23.014;2023-03-24T13:37:30;100896.50;;;30.71;22.28
42725;BME280;28369;44.046;23.014;2023-03-24T13:40:04;100895.47;;;30.28;23.16
42725;BME280;28369;44.046;23.014;2023-03-24T13:42:34;100844.28;;;30.04;23.02
42725;BME280;28369;44.046;23.014;2023-03-24T13:45:04;100863.56;;;29.86;23.65
42725;BME280;28369;44.046;23.014;2023-03-24T13:47:51;100904.03;;;30.64;23.59
42725;BME280;28369;44.046;23.014;2023-03-24T13:50:20;100649.31;;;29.16;24.09
42725;BME280;28369;44.046;23.014;2023-03-24T13:52:48;100873.63;;;29.68;23.84
42725;BME280;28369;44.046;23.014;2023-03-24T13:55:20;100774.13;;;29.02;23.41
42725;BME280;28369;44.046;23.014;2023-03-24T13:57:56;100892.53;;;29.85;23.70
42725;BME280;28369;44.046;23.014;2023-03-24T14:00:24;100890.59;;;30.03;23.75
42725;BME280;28369;44.046;23.014;2023-03-24T14:02:52;100896.22;;;29.57;23.70
42725;BME280;28369;44.046;23.014;2023-03-24T14:10:27;100697.63;;;28.68;23.38
42725;BME280;28369;44.046;23.014;2023-03-24T14:13:00;100691.09;;;28.47;23.45
42725;BME280;28369;44.046;23.014;2023-03-24T14:15:31;100755.28;;;29.07;23.06
42725;BME280;28369;44.046;23.014;2023-03-24T14:25:56;100824.28;;;29.44;22.77
42725;BME280;28369;44.046;23.014;2023-03-24T14:28:53;100867.88;;;30.31;22.51
42725;BME280;28369;44.046;23.014;2023-03-24T14:31:22;100854.38;;;29.87;21.77
42725;BME280;28369;44.046;23.014;2023-03-24T14:36:29;100675.66;;;29.03;22.46
42725;BME280;28369;44.046;23.014;2023-03-24T14:41:59;100714.91;;;29.23;22.65
42725;BME280;28369;44.046;23.014;2023-03-24T14:47:09;100832.41;;;30.10;21.83
42725;BME280;28369;44.046;23.014;2023-03-24T14:49:41;100805.06;;;29.68;20.66
42725;BME280;28369;44.046;23.014;2023-03-24T14:52:16;100662.00;;;28.93;21.10
42725;BME280;28369;44.046;23.014;2023-03-24T14:55:03;100842.13;;;30.06;20.39
42725;BME280;28369;44.046;23.014;2023-03-24T14:57:38;100845.94;;;30.10;21.20
42725;BME280;28369;44.046;23.014;2023-03-24T15:00:21;100842.72;;;30.13;21.69
42725;BME280;28369;44.046;23.014;2023-03-24T15:03:15;100831.50;;;29.99;20.61
42725;BME280;28369;44.046;23.014;2023-03-24T15:05:42;100648.44;;;28.71;21.86
42725;BME280;28369;44.046;23.014;2023-03-24T15:08:19;100794.50;;;29.44;21.27
42725;BME280;28369;44.046;23.014;2023-03-24T15:10:53;100799.41;;;29.47;21.97
42725;BME280;28369;44.046;23.014;2023-03-24T15:13:33;100661.75;;;28.55;21.96
42725;BME280;28369;44.046;23.014;2023-03-24T15:16:03;100826.47;;;29.69;21.61
42725;BME280;28369;44.046;23.014;2023-03-24T15:18:31;100824.84;;;29.46;21.28
42725;BME280;28369;44.046;23.014;2023-03-24T15:20:56;100796.16;;;29.28;20.70
42725;BME280;28369;44.046;23.014;2023-03-24T15:23:25;100811.03;;;29.25;20.76
42725;BME280;28369;44.046;23.014;2023-03-24T15:25:51;100729.56;;;28.88;20.85
42725;BME280;28369;44.046;23.014;2023-03-24T15:28:25;100756.13;;;28.91;21.75
42725;BME280;28369;44.046;23.014;2023-03-24T15:30:52;100766.50;;;28.99;20.97
42725;BME280;28369;44.046;23.014;2023-03-24T15:33:17;100716.72;;;28.61;21.81
42725;BME280;28369;44.046;23.014;2023-03-24T15:35:45;100763.66;;;28.89;21.01
42725;BME280;28369;44.046;23.014;2023-03-24T15:38:19;100806.69;;;29.07;21.03
42725;BME280;28369;44.046;23.014;2023-03-24T15:41:01;100796.75;;;29.13;21.43
42725;BME280;28369;44.046;23.014;2023-03-24T15:44:06;100759.41;;;28.76;20.49
42725;BME280;28369;44.046;23.014;2023-03-24T15:46:26;100809.72;;;29.11;20.86
42725;BME280;28369;44.046;23.014;2023-03-24T15:48:53;100533.13;;;27.23;20.72
42725;BME280;28369;44.046;23.014;2023-03-24T15:51:19;100792.59;;;28.54;20.54
42725;BME280;28369;44.046;23.014;2023-03-24T15:54:19;100761.69;;;28.50;20.73
42725;BME280;28369;44.046;23.014;2023-03-24T15:57:14;100667.59;;;27.84;20.57
42725;BME280;28369;44.046;23.014;2023-03-24T16:05:25;100618.78;;;27.57;20.55
42725;BME280;28369;44.046;23.014;2023-03-24T16:07:59;100566.38;;;27.12;21.11
42725;BME280;28369;44.046;23.014;2023-03-24T16:10:32;100764.69;;;27.91;20.90
42725;BME280;28369;44.046;23.014;2023-03-24T16:13:20;100614.91;;;27.24;21.23
42725;BME280;28369;44.046;23.014;2023-03-24T16:18:42;100784.56;;;28.14;21.57
42725;BME280;28369;44.046;23.014;2023-03-24T16:21:29;100797.56;;;28.28;21.45
42725;BME280;28369;44.046;23.014;2023-03-24T16:23:56;100773.81;;;28.02;21.12
42725;BME280;28369;44.046;23.014;2023-03-24T16:26:29;100754.69;;;28.03;21.24
42725;BME280;28369;44.046;23.014;2023-03-24T16:31:37;100769.63;;;27.94;21.23
42725;BME280;28369;44.046;23.014;2023-03-24T16:34:03;100761.19;;;27.50;21.59
42725;BME280;28369;44.046;23.014;2023-03-24T16:36:28;100774.78;;;27.67;21.50
42725;BME280;28369;44.046;23.014;2023-03-24T16:38:56;100773.53;;;27.46;22.05
42725;BME280;28369;44.046;23.014;2023-03-24T16:41:22;100761.81;;;27.28;22.09
42725;BME280;28369;44.046;23.014;2023-03-24T16:43:48;100786.53;;;27.25;21.96
42725;BME280;28369;44.046;23.014;2023-03-24T16:46:16;100782.56;;;27.28;22.47
42725;BME280;28369;44.046;23.014;2023-03-24T16:48:43;100780.00;;;26.97;22.69
42725;BME280;28369;44.046;23.014;2023-03-24T16:51:13;100757.59;;;26.85;22.50
42725;BME280;28369;44.046;23.014;2023-03-24T16:53:40;100753.84;;;26.86;22.96